Time;durP1;ratioP1;P1;durP2;ratioP2;P2;SDS_P1;SDS_P2;PMS_P1;PMS_P2;Temp;Humidity;BMP_temperature;BMP_pressure;BME280_temperature;BME280_humidity;BME280_pressure;Samples;Min_cycle;Max_cycle;Signal;HPM_P1;HPM_P2
2023/04/01 00:01:45;;;;;;;67.05;24.13;;;;;;;13.17;52.37;94394.34;5095669;28;20073;-77
2023/04/01 00:04:11;;;;;;;46.72;21.45;;;;;;;13.16;52.08;94390.88;5110683;28;20142;-78
2023/04/01 00:06:36;;;;;;;44.35;18.85;;;;;;;12.43;52.01;94282.41;5090950;28;20094;-77
2023/04/01 00:09:02;;;;;;;38.38;16.23;;;;;;;12.80;51.92;94340.47;5092196;28;20028;-78
2023/04/01 00:11:27;;;;;;;31.95;15.25;;;;;;;12.74;51.94;94329.16;5091150;28;20070;-77
2023/04/01 00:13:53;;;;;;;30.73;14.80;;;;;;;12.90;52.44;94390.72;5093279;28;20093;-77
2023/04/01 00:16:19;;;;;;;36.65;15.52;;;;;;;12.67;52.17;94365.28;5092529;28;20024;-77
2023/04/01 00:18:46;;;;;;;35.28;16.40;;;;;;;12.85;51.88;94390.09;5091700;28;20506;-77
2023/04/01 00:21:12;;;;;;;33.80;14.68;;;;;;;12.57;51.77;94341.63;5104547;28;20059;-77
2023/04/01 00:23:38;;;;;;;31.90;15.18;;;;;;;12.46;52.08;94341.06;5113885;28;20032;-77
2023/04/01 00:26:03;;;;;;;32.45;14.15;;;;;;;12.74;52.03;94374.38;5113824;28;20432;-78
2023/04/01 00:28:30;;;;;;;43.85;14.57;;;;;;;12.27;52.22;94312.06;5113653;28;20031;-78
2023/04/01 00:30:55;;;;;;;27.35;14.23;;;;;;;12.75;52.96;94394.59;5094969;28;20027;-78
2023/04/01 00:33:21;;;;;;;30.25;14.63;;;;;;;12.71;52.35;94390.19;5113079;28;20458;-77
2023/04/01 00:35:46;;;;;;;26.05;13.65;;;;;;;12.34;53.10;94356.81;5095072;28;20560;-77
2023/04/01 00:38:12;;;;;;;32.30;11.82;;;;;;;12.43;53.06;94386.91;5093825;28;20036;-77
2023/04/01 00:40:40;;;;;;;27.63;13.98;;;;;;;12.16;53.64;94345.28;5112886;28;20263;-77
2023/04/01 00:43:12;;;;;;;33.45;13.95;;;;;;;12.39;54.00;94377.94;5095260;28;20027;-77
2023/04/01 00:45:41;;;;;;;29.60;13.23;;;;;;;12.43;55.01;94372.81;5113177;28;20032;-77
2023/04/01 00:48:16;;;;;;;27.83;12.93;;;;;;;12.42;56.71;94361.41;5112734;28;20571;-77
2023/04/01 00:50:47;;;;;;;27.50;12.73;;;;;;;12.27;56.75;94351.94;5113154;28;20429;-77
2023/04/01 00:53:13;;;;;;;;;;;;;;;12.33;58.38;94356.03;5095691;28;20027;-77
2023/04/01 00:55:43;;;;;;;31.85;11.85;;;;;;;11.88;57.79;94298.69;5114839;28;20324;-77
2023/04/01 00:58:13;;;;;;;21.65;12.00;;;;;;;12.23;57.92;94350.94;5095679;28;20039;-78
2023/04/01 01:00:39;;;;;;;30.02;12.18;;;;;;;11.59;59.56;94243.28;5108153;28;20038;-77
2023/04/01 01:03:05;;;;;;;22.48;12.15;;;;;;;12.23;58.30;94342.97;5074648;28;20032;-77
2023/04/01 01:06:08;;;;;;;21.33;10.85;;;;;;;11.76;57.92;94271.84;5112797;28;20119;-78
2023/04/01 01:08:56;;;;;;;25.90;10.88;;;;;;;12.13;58.47;94332.59;5090895;28;20043;-77
2023/04/01 01:11:34;;;;;;;22.75;11.32;;;;;;;11.49;58.20;94238.22;5112213;28;20179;-77
2023/04/01 01:14:13;;;;;;;22.98;11.45;;;;;;;11.49;58.76;94235.56;5111938;28;20031;-78
2023/04/01 01:16:48;;;;;;;24.33;11.55;;;;;;;11.92;59.48;94308.38;5094482;28;20040;-78
2023/04/01 01:19:32;;;;;;;24.20;11.68;;;;;;;12.06;58.55;94316.28;5112711;28;20031;-79
2023/04/01 01:22:38;;;;;;;21.42;11.07;;;;;;;12.06;59.47;94304.88;5091602;28;20096;-79
2023/04/01 01:25:17;;;;;;;21.08;10.52;;;;;;;12.09;58.67;94306.94;5079482;28;20039;-79
2023/04/01 01:27:59;;;;;;;19.70;10.15;;;;;;;12.01;57.29;94308.44;5092591;28;20050;-79
2023/04/01 01:30:41;;;;;;;21.60;9.95;;;;;;;12.02;57.46;94303.91;5092892;28;20046;-79
2023/04/01 01:33:49;;;;;;;25.02;10.05;;;;;;;11.95;58.44;94291.84;5111702;28;20038;-79
2023/04/01 01:36:17;;;;;;;21.13;9.65;;;;;;;11.60;58.35;94258.13;5091536;28;20064;-79
2023/04/01 01:38:44;;;;;;;25.48;9.43;;;;;;;11.63;57.45;94260.19;5090936;28;20043;-78
2023/04/01 01:41:13;;;;;;;20.15;10.18;;;;;;;11.66;57.07;94241.00;5089476;28;20077;-78
2023/04/01 01:43:43;;;;;;;17.85;8.82;;;;;;;11.85;57.16;94262.84;5092128;28;20035;-79
2023/04/01 01:46:17;;;;;;;25.15;9.20;;;;;;;12.03;56.58;94282.34;5110961;28;20042;-78
2023/04/01 01:48:44;;;;;;;22.85;8.90;;;;;;;11.98;56.26;94269.97;5111639;28;20044;-78
2023/04/01 01:51:10;;;;;;;16.15;8.68;;;;;;;12.18;56.04;94289.94;5092675;28;20051;-78
2023/04/01 01:53:36;;;;;;;24.75;9.10;;;;;;;11.75;55.38;94219.84;5111260;28;20478;-79
2023/04/01 01:56:02;;;;;;;22.30;9.05;;;;;;;11.51;55.90;94207.63;5092691;28;20035;-79
2023/04/01 01:58:40;;;;;;;22.92;8.90;;;;;;;12.12;56.17;94274.44;5078488;28;20035;-79
2023/04/01 02:01:10;;;;;;;21.38;8.15;;;;;;;12.15;55.59;94263.97;5097482;28;20036;-79
2023/04/01 02:03:39;;;;;;;14.05;7.38;;;;;;;12.03;56.15;94262.97;5096612;28;20036;-79
2023/04/01 02:06:07;;;;;;;33.47;9.15;;;;;;;11.85;56.12;94251.44;5096967;28;20058;-79
2023/04/01 02:08:42;;;;;;;26.90;8.68;;;;;;;11.85;56.09;94276.13;5096689;28;20038;-79
2023/04/01 02:11:11;;;;;;;24.40;9.00;;;;;;;11.86;56.17;94259.13;5115640;28;20386;-79
2023/04/01 02:13:42;;;;;;;27.10;8.85;;;;;;;12.04;55.63;94265.34;5097040;28;20551;-79
2023/04/01 02:16:18;;;;;;;18.45;8.13;;;;;;;11.93;55.80;94259.47;5115298;28;20059;-78
2023/04/01 02:18:47;;;;;;;20.55;8.68;;;;;;;12.01;56.08;94262.47;5096523;28;20053;-78
2023/04/01 02:21:14;;;;;;;29.55;8.90;;;;;;;11.66;55.77;94203.81;5102845;27;20089;-79
2023/04/01 02:23:42;;;;;;;20.00;8.95;;;;;;;12.09;55.55;94253.78;5115192;28;20464;-78
2023/04/01 02:26:09;;;;;;;23.15;7.85;;;;;;;12.15;55.46;94244.56;5114916;28;20031;-78
2023/04/01 02:28:38;;;;;;;24.80;7.68;;;;;;;11.80;55.79;94177.19;5115056;28;20043;-78
2023/04/01 02:31:04;;;;;;;18.98;8.35;;;;;;;12.22;55.75;94253.69;5096936;28;20024;-78
2023/04/01 02:33:31;;;;;;;25.42;9.13;;;;;;;12.09;55.87;94259.88;5114547;28;20100;-79
2023/04/01 02:35:58;;;;;;;24.27;8.35;;;;;;;11.66;56.86;94270.22;5110486;28;20563;-79
2023/04/01 02:38:23;;;;;;;22.60;8.60;;;;;;;11.71;57.24;94256.81;5114736;28;20612;-79
2023/04/01 02:40:55;;;;;;;24.73;8.55;;;;;;;11.95;56.67;94259.19;5096051;28;20031;-79
2023/04/01 02:43:21;;;;;;;24.98;9.52;;;;;;;12.05;56.48;94266.13;5096380;28;20060;-79
2023/04/01 02:45:46;;;;;;;28.83;8.60;;;;;;;11.84;56.65;94250.66;5114517;28;20035;-79
2023/04/01 02:48:13;;;;;;;21.33;8.90;;;;;;;11.63;56.50;94224.88;5096106;28;20036;-79
2023/04/01 02:50:39;;;;;;;25.63;8.82;;;;;;;11.88;56.40;94232.25;5095402;28;20035;-79
2023/04/01 02:53:06;;;;;;;20.20;8.55;;;;;;;11.26;56.08;94164.97;5115081;28;20134;-78
2023/04/01 02:55:32;;;;;;;25.75;10.18;;;;;;;11.98;56.05;94282.47;5113846;28;20039;-79
2023/04/01 02:57:57;;;;;;;23.55;11.10;;;;;;;11.90;55.95;94278.66;5130976;27;20039;-78
2023/04/01 03:00:23;;;;;;;27.33;11.65;;;;;;;11.65;55.22;94228.00;5117016;27;20490;-79
2023/04/01 03:02:49;;;;;;;26.48;12.38;;;;;;;11.53;55.34;94202.78;5112814;28;20069;-78
2023/04/01 03:05:14;;;;;;;31.05;14.43;;;;;;;11.46;56.40;94274.09;5094283;28;20115;-78
2023/04/01 03:07:40;;;;;;;29.17;13.27;;;;;;;11.13;56.76;94224.97;5086194;28;20043;-79
2023/04/01 03:10:06;;;;;;;30.42;11.80;;;;;;;11.65;56.49;94270.50;5109925;28;20035;-79
2023/04/01 03:12:32;;;;;;;32.15;11.75;;;;;;;11.15;56.31;94220.13;5095952;28;20038;-79
2023/04/01 03:14:57;;;;;;;24.77;10.70;;;;;;;11.33;55.62;94237.78;5095910;28;20035;-79
2023/04/01 03:17:23;;;;;;;26.00;11.15;;;;;;;11.41;55.63;94255.66;5095768;28;20031;-79
2023/04/01 03:19:48;;;;;;;26.80;11.07;;;;;;;11.12;56.96;94295.84;5096068;28;20485;-79
2023/04/01 03:22:14;;;;;;;30.90;12.18;;;;;;;11.41;56.55;94305.28;5114354;28;20044;-79
2023/04/01 03:24:40;;;;;;;31.00;12.35;;;;;;;10.94;57.43;94256.16;5114261;28;20550;-79
2023/04/01 03:27:05;;;;;;;29.33;11.70;;;;;;;11.36;57.34;94308.88;5095052;28;20517;-78
2023/04/01 03:29:30;;;;;;;30.65;13.07;;;;;;;10.13;58.08;94176.38;5113623;28;20035;-79
2023/04/01 03:31:57;;;;;;;26.00;11.93;;;;;;;11.07;58.56;94319.81;5113887;28;20043;-78
2023/04/01 03:34:24;;;;;;;37.00;13.45;;;;;;;10.77;58.17;94260.19;5113326;28;20047;-79
2023/04/01 03:36:49;;;;;;;29.90;13.18;;;;;;;10.83;59.25;94263.56;5087500;28;20118;-79
2023/04/01 03:39:18;;;;;;;36.15;14.23;;;;;;;10.94;60.12;94243.69;5095478;28;20508;-79
2023/04/01 03:41:44;;;;;;;31.58;13.18;;;;;;;11.46;59.02;94297.22;5094999;28;20032;-79
2023/04/01 03:44:10;;;;;;;25.98;12.13;;;;;;;11.22;60.81;94245.16;5094941;28;20039;-79
2023/04/01 03:46:36;;;;;;;29.00;13.23;;;;;;;11.64;60.99;94274.25;5113027;28;20039;-79
2023/04/01 03:49:02;;;;;;;25.52;12.55;;;;;;;11.53;61.08;94261.19;5113169;28;20038;-79
2023/04/01 03:51:27;;;;;;;25.58;12.20;;;;;;;11.19;60.29;94183.97;5113494;28;20431;-78
2023/04/01 03:53:53;;;;;;;26.95;12.60;;;;;;;11.69;61.23;94247.56;5113577;28;20034;-80
2023/04/01 03:56:19;;;;;;;31.55;13.43;;;;;;;11.50;61.66;94214.03;5113764;28;20661;-78
2023/04/01 03:58:44;;;;;;;26.15;12.15;;;;;;;11.56;62.17;94220.78;5113394;28;20031;-79
2023/04/01 04:01:21;;;;;;;30.08;12.45;;;;;;;11.19;61.57;94136.19;5094773;28;20028;-79
2023/04/01 04:03:48;;;;;;;24.70;13.32;;;;;;;11.55;61.27;94173.28;5114544;27;20084;-79
2023/04/01 04:06:15;;;;;;;33.80;12.70;;;;;;;11.64;61.42;94190.03;5113661;28;20031;-80
2023/04/01 04:08:41;;;;;;;28.40;13.20;;;;;;;10.83;61.69;94122.97;5105670;28;20037;-79
2023/04/01 04:11:07;;;;;;;19.85;11.18;;;;;;;11.46;60.50;94181.19;5091851;28;20111;-79
2023/04/01 04:13:32;;;;;;;26.85;12.93;;;;;;;10.96;60.70;94110.75;5090933;28;20059;-79
2023/04/01 04:15:58;;;;;;;31.33;13.25;;;;;;;11.44;61.11;94186.00;5108950;28;20032;-79
2023/04/01 04:18:23;;;;;;;39.00;12.15;;;;;;;11.60;60.28;94167.81;5112889;28;20045;-79
2023/04/01 04:20:50;;;;;;;27.75;11.82;;;;;;;11.34;60.08;94140.34;5096439;28;20043;-79
2023/04/01 04:23:16;;;;;;;33.50;12.70;;;;;;;11.40;60.26;94174.44;5116972;27;20110;-79
2023/04/01 04:25:41;;;;;;;30.27;11.35;;;;;;;11.18;59.33;94114.19;5094136;28;20551;-79
2023/04/01 04:28:07;;;;;;;23.95;10.32;;;;;;;11.33;58.79;94115.69;5086170;28;20078;-79
2023/04/01 04:30:32;;;;;;;23.35;10.48;;;;;;;11.33;58.74;94107.72;5094584;28;20085;-79
2023/04/01 04:32:58;;;;;;;22.58;10.00;;;;;;;11.68;57.73;94143.19;5113097;28;20042;-79
2023/04/01 04:35:23;;;;;;;26.67;10.63;;;;;;;11.34;57.75;94105.84;5112995;28;20028;-79
2023/04/01 04:37:48;;;;;;;22.50;9.60;;;;;;;11.65;58.20;94141.16;5112504;28;20031;-79
2023/04/01 04:40:14;;;;;;;29.60;11.50;;;;;;;11.61;57.71;94154.25;5112329;28;20074;-79
2023/04/01 04:42:39;;;;;;;23.38;10.73;;;;;;;11.33;57.66;94099.75;5093770;28;20096;-79
2023/04/01 04:45:06;;;;;;;24.25;10.43;;;;;;;10.93;57.59;94029.09;5111869;28;20068;-79
2023/04/01 04:47:33;;;;;;;26.63;9.95;;;;;;;11.60;57.46;94117.38;5112751;28;20039;-79
2023/04/01 04:49:58;;;;;;;20.95;8.88;;;;;;;10.81;57.62;93998.63;5112056;28;20040;-79
2023/04/01 04:52:23;;;;;;;17.15;8.73;;;;;;;11.79;56.88;94128.59;5093938;28;20045;-79
2023/04/01 04:54:49;;;;;;;24.00;8.60;;;;;;;11.28;56.34;94051.31;5097067;28;20645;-79
2023/04/01 04:57:14;;;;;;;27.48;8.63;;;;;;;11.25;56.31;94051.91;5117986;27;20027;-79
2023/04/01 04:59:40;;;;;;;16.98;7.57;;;;;;;11.42;55.94;94063.41;5093670;28;20032;-79
2023/04/01 05:02:06;;;;;;;20.15;9.00;;;;;;;11.83;55.73;94123.44;5093795;28;20063;-79
2023/04/01 05:04:35;;;;;;;18.00;8.15;;;;;;;11.53;55.09;94063.91;5104031;28;20592;-79
2023/04/01 05:07:00;;;;;;;22.52;8.70;;;;;;;11.54;55.41;94062.84;5085611;28;20044;-79
2023/04/01 05:09:26;;;;;;;19.13;8.27;;;;;;;11.60;55.39;94078.31;5111159;28;20088;-79
2023/04/01 05:11:54;;;;;;;24.35;8.40;;;;;;;11.48;54.73;94064.84;5112326;28;20422;-79
2023/04/01 05:14:20;;;;;;;22.27;7.80;;;;;;;11.19;54.83;94024.75;5093306;28;20027;-79
2023/04/01 05:16:45;;;;;;;27.55;7.75;;;;;;;11.38;54.97;94035.91;5094004;28;20042;-79
2023/04/01 05:19:10;;;;;;;24.25;9.20;;;;;;;11.35;55.32;94025.91;5109178;28;20099;-79
2023/04/01 05:21:36;;;;;;;27.80;10.55;;;;;;;11.39;55.78;94042.00;5104677;28;20082;-79
2023/04/01 05:24:01;;;;;;;34.63;13.88;;;;;;;11.07;55.68;93984.69;5093303;28;20158;-79
2023/04/01 05:26:27;;;;;;;43.67;15.82;;;;;;;11.25;55.90;94004.94;5105211;28;20031;-79
2023/04/01 05:28:52;;;;;;;27.10;12.10;;;;;;;11.56;55.38;94036.78;5112151;28;20164;-79
2023/04/01 05:31:17;;;;;;;28.02;13.63;;;;;;;11.69;55.63;94089.00;5111726;28;20038;-79
2023/04/01 05:33:43;;;;;;;28.35;9.65;;;;;;;11.16;55.70;94018.16;5112075;28;20496;-79
2023/04/01 05:36:10;;;;;;;26.02;10.50;;;;;;;11.68;55.80;94084.75;5094236;28;20143;-79
2023/04/01 05:38:37;;;;;;;28.02;11.27;;;;;;;11.74;55.70;94082.78;5111019;28;20101;-79
2023/04/01 05:41:03;;;;;;;25.35;9.82;;;;;;;11.44;55.46;94041.88;5093115;28;20033;-79
2023/04/01 05:43:29;;;;;;;45.22;11.75;;;;;;;11.58;56.72;94096.47;5106160;28;20426;-79
2023/04/01 05:45:55;;;;;;;44.13;10.80;;;;;;;11.16;57.39;94043.91;5091469;28;20412;-79
2023/04/01 05:48:21;;;;;;;28.80;10.63;;;;;;;10.93;56.83;94003.38;5110965;28;20042;-79
2023/04/01 05:50:46;;;;;;;29.15;10.20;;;;;;;11.71;56.11;94092.13;5088488;28;20103;-79
2023/04/01 05:53:11;;;;;;;21.42;10.00;;;;;;;11.59;55.89;94054.75;5109422;28;20119;-79
2023/04/01 05:55:37;;;;;;;23.20;9.65;;;;;;;11.89;55.54;94069.91;5093336;28;20046;-79
2023/04/01 05:58:02;;;;;;;34.70;11.52;;;;;;;11.92;56.20;94066.59;5092998;28;20030;-79
2023/04/01 06:00:28;;;;;;;26.80;10.25;;;;;;;11.85;55.72;94041.56;5124895;28;20482;-79
2023/04/01 06:02:53;;;;;;;29.30;9.57;;;;;;;11.82;55.00;94032.38;5104134;28;20152;-79
2023/04/01 06:05:25;;;;;;;19.48;8.07;;;;;;;12.19;54.59;94065.59;5087983;28;20024;-79
2023/04/01 06:08:00;;;;;;;23.33;8.45;;;;;;;11.87;54.34;93999.56;5105838;28;20446;-79
2023/04/01 06:10:52;;;;;;;18.90;7.32;;;;;;;12.46;53.67;94071.72;5092132;28;20725;-80
2023/04/01 06:13:36;;;;;;;;;;;;;;;12.40;53.41;94073.75;5063518;28;20035;-80
2023/04/01 06:16:22;;;;;;;21.83;6.10;;;;;;;12.56;52.02;94063.44;5110775;28;19971;-79
2023/04/01 06:18:56;;;;;;;16.50;5.55;;;;;;;12.53;52.80;94069.38;5092899;28;20035;-79
2023/04/01 06:21:47;;;;;;;19.02;5.88;;;;;;;12.68;52.89;94068.91;5110584;28;20043;-80
2023/04/01 06:24:26;;;;;;;22.52;6.72;;;;;;;12.56;52.54;94023.56;5097233;28;20086;-79
2023/04/01 06:27:12;;;;;;;20.45;6.60;;;;;;;13.03;52.13;94065.16;5110508;28;20119;-79
2023/04/01 06:30:08;;;;;;;21.65;6.90;;;;;;;12.88;51.68;94078.16;5092703;28;20040;-79
2023/04/01 06:32:57;;;;;;;19.02;6.10;;;;;;;13.13;51.51;94070.16;5108892;28;20470;-79
2023/04/01 06:35:28;;;;;;;20.42;6.70;;;;;;;13.11;51.21;94018.34;5110714;28;20210;-79
2023/04/01 06:38:35;;;;;;;17.23;5.90;;;;;;;13.44;51.21;94056.63;5103224;28;20552;-79
2023/04/01 06:41:33;;;;;;;19.38;5.75;;;;;;;13.52;51.23;94047.84;5088491;28;20065;-80
2023/04/01 06:44:20;;;;;;;18.70;5.70;;;;;;;13.59;50.58;94043.88;5109225;28;20397;-79
2023/04/01 06:47:22;;;;;;;18.42;6.75;;;;;;;13.48;51.08;94014.19;5114276;28;20031;-79
2023/04/01 06:50:03;;;;;;;15.43;5.78;;;;;;;13.76;51.50;94041.16;5113653;28;20035;-79
2023/04/01 06:52:46;;;;;;;16.30;6.10;;;;;;;13.57;51.40;93996.28;5114388;28;20024;-80
2023/04/01 06:55:25;;;;;;;12.57;6.13;;;;;;;13.95;51.00;94030.91;5095562;28;20114;-79
2023/04/01 06:57:58;;;;;;;20.70;6.07;;;;;;;13.95;50.77;94009.56;5114453;28;20028;-80
2023/04/01 07:00:23;;;;;;;11.70;6.18;;;;;;;14.00;50.72;94004.03;5114260;28;20080;-80
2023/04/01 07:02:58;;;;;;;20.13;6.53;;;;;;;13.81;50.79;93966.34;5092960;28;20028;-80
2023/04/01 07:05:30;;;;;;;14.45;5.93;;;;;;;13.60;51.89;93944.22;5110639;27;20038;-80
2023/04/01 07:07:59;;;;;;;18.92;6.13;;;;;;;13.34;51.96;93929.19;5110937;28;20103;-79
2023/04/01 07:10:52;;;;;;;23.50;7.68;;;;;;;13.87;51.36;94021.84;5113790;28;20039;-80
2023/04/01 07:13:46;;;;;;;16.70;6.32;;;;;;;13.63;51.33;93986.22;5090771;28;20036;-80
2023/04/01 07:16:47;;;;;;;25.58;7.30;;;;;;;13.44;51.88;93959.97;5104084;28;20044;-80
2023/04/01 07:19:24;;;;;;;28.95;7.40;;;;;;;13.98;51.75;93997.47;5080897;28;20524;-78
2023/04/01 07:22:04;;;;;;;17.63;7.38;;;;;;;13.44;51.94;93890.72;5113462;28;20506;-79
2023/04/01 07:24:37;;;;;;;31.67;7.70;;;;;;;13.43;52.08;93950.41;5112638;28;20039;-79
2023/04/01 07:27:05;;;;;;;28.33;8.10;;;;;;;13.47;53.05;93972.66;5112711;28;20454;-79
2023/04/01 07:29:31;;;;;;;22.17;6.90;;;;;;;13.20;53.24;93917.94;5112962;28;20028;-79
2023/04/01 07:32:11;;;;;;;19.13;7.35;;;;;;;14.02;53.43;94003.72;5094466;28;20094;-81
2023/04/01 07:34:42;;;;;;;20.60;7.55;;;;;;;14.01;53.74;94010.94;5094038;28;20147;-80
2023/04/01 07:37:11;;;;;;;;;;;;;;;13.97;53.51;94001.22;5113706;28;20040;-80
2023/04/01 07:39:39;;;;;;;25.25;6.25;;;;;;;14.04;53.79;94010.28;5094724;28;20010;-81
2023/04/01 07:42:39;;;;;;;21.95;6.63;;;;;;;13.81;52.95;93963.69;5087914;28;20449;-80
2023/04/01 07:45:19;;;;;;;15.68;6.40;;;;;;;14.09;52.92;93998.66;5103618;28;20036;-80
2023/04/01 07:47:47;;;;;;;18.50;6.28;;;;;;;14.14;53.06;93991.25;5112766;28;20396;-80
2023/04/01 07:50:34;;;;;;;25.73;5.97;;;;;;;14.14;52.55;93979.81;5112002;28;20036;-80
2023/04/01 07:53:18;;;;;;;27.55;6.25;;;;;;;13.86;53.09;93935.00;5112305;28;20512;-80
2023/04/01 07:56:04;;;;;;;16.73;5.32;;;;;;;14.18;52.13;93994.84;5112030;28;20416;-80
2023/04/01 07:58:43;;;;;;;15.10;5.95;;;;;;;13.35;52.83;93874.78;5070886;28;20455;-80
2023/04/01 08:01:12;;;;;;;14.55;4.28;;;;;;;14.13;52.24;93996.91;5093713;28;20067;-80
2023/04/01 08:03:49;;;;;;;17.63;5.70;;;;;;;14.21;51.50;93986.19;5106819;28;20042;-80
2023/04/01 08:06:33;;;;;;;14.43;4.68;;;;;;;14.16;50.97;93978.38;5111456;28;20051;-80
2023/04/01 08:09:09;;;;;;;11.43;4.53;;;;;;;14.12;51.51;93971.34;5111528;28;20035;-80
2023/04/01 08:11:51;;;;;;;9.43;4.53;;;;;;;14.10;51.57;93949.56;5111598;28;20440;-81
2023/04/01 08:14:19;;;;;;;15.10;5.47;;;;;;;14.50;50.56;93965.91;5111649;28;20035;-81
2023/04/01 08:17:26;;;;;;;13.38;4.93;;;;;;;14.57;50.01;93968.84;5093247;28;20498;-80
2023/04/01 08:20:23;;;;;;;17.45;5.57;;;;;;;14.73;50.06;93947.66;5027500;28;20039;-80
2023/04/01 08:23:15;;;;;;;15.95;6.68;;;;;;;14.86;50.33;93946.59;5079210;28;20045;-80
2023/04/01 08:25:50;;;;;;;17.73;5.18;;;;;;;15.00;49.63;93937.19;5092785;28;20032;-80
2023/04/01 08:28:29;;;;;;;21.77;6.85;;;;;;;14.96;49.64;93946.16;5093779;27;20028;-80
2023/04/01 08:31:07;;;;;;;18.25;6.38;;;;;;;14.83;49.77;93940.03;5101224;28;20015;-80
2023/04/01 08:33:33;;;;;;;23.85;6.55;;;;;;;14.75;49.66;93913.41;5106995;28;20829;-80
2023/04/01 08:36:23;;;;;;;15.90;6.38;;;;;;;14.96;49.54;93898.13;5072468;28;20032;-80
2023/04/01 08:38:53;;;;;;;21.90;5.45;;;;;;;14.71;48.32;93833.25;5106344;28;20067;-80
2023/04/01 08:41:50;;;;;;;28.83;6.32;;;;;;;15.09;48.76;93897.03;5111875;28;20032;-80
2023/04/01 08:44:34;;;;;;;21.92;7.78;;;;;;;15.09;49.14;93885.56;5092995;28;20032;-80
2023/04/01 08:47:44;;;;;;;27.50;7.00;;;;;;;15.13;49.82;93881.91;5111401;28;20034;-80
2023/04/01 08:50:47;;;;;;;21.02;6.47;;;;;;;15.33;48.77;93883.69;5055241;28;20071;-80
2023/04/01 08:53:41;;;;;;;14.88;4.90;;;;;;;15.20;47.40;93855.41;5104492;28;20552;-80
2023/04/01 08:56:47;;;;;;;19.15;4.75;;;;;;;15.24;47.56;93860.88;5090645;28;20109;-80
2023/04/01 08:59:40;;;;;;;12.10;4.40;;;;;;;15.14;47.80;93872.00;5091454;28;20031;-80
2023/04/01 09:02:11;;;;;;;16.63;4.75;;;;;;;15.18;47.00;93875.56;5094583;28;20494;-80
2023/04/01 09:04:40;;;;;;;15.05;4.43;;;;;;;15.23;46.71;93888.69;5093366;28;20036;-80
2023/04/01 09:07:48;;;;;;;21.58;5.43;;;;;;;15.23;46.09;93833.41;5110194;28;20028;-80
2023/04/01 09:10:26;;;;;;;25.92;5.88;;;;;;;15.18;45.71;93814.16;5104811;28;20028;-80
2023/04/01 09:12:57;;;;;;;17.15;5.05;;;;;;;15.73;44.76;93883.03;5108495;28;20031;-80
2023/04/01 09:15:26;;;;;;;16.77;4.95;;;;;;;15.88;44.41;93887.66;5086296;28;20096;-80
2023/04/01 09:18:00;;;;;;;12.40;3.97;;;;;;;16.12;43.30;93892.19;5110983;28;20028;-80
2023/04/01 09:21:05;;;;;;;11.98;3.15;;;;;;;16.18;41.71;93878.22;5103841;28;20035;-80
2023/04/01 09:23:53;;;;;;;10.82;4.40;;;;;;;16.38;41.72;93875.72;5105148;28;20043;-80
2023/04/01 09:26:38;;;;;;;14.63;4.05;;;;;;;16.46;40.58;93878.25;5090243;28;20462;-81
2023/04/01 09:29:24;;;;;;;11.70;4.13;;;;;;;16.62;39.54;93862.25;5096278;28;20429;-80
2023/04/01 09:32:27;;;;;;;16.55;3.30;;;;;;;16.77;39.99;93853.47;5091895;28;20043;-80
2023/04/01 09:35:27;;;;;;;9.38;3.58;;;;;;;16.90;39.71;93838.88;5077557;28;20043;-80
2023/04/01 09:38:17;;;;;;;10.95;3.63;;;;;;;17.04;40.11;93843.03;5080529;28;20506;-80
2023/04/01 09:40:58;;;;;;;14.40;4.70;;;;;;;16.93;40.46;93845.47;5100249;28;20094;-80
2023/04/01 09:44:01;;;;;;;14.60;4.90;;;;;;;16.95;40.40;93829.81;5125095;28;20043;-80
2023/04/01 09:46:59;;;;;;;11.90;4.10;;;;;;;16.77;40.98;93793.81;5074322;28;20104;-80
2023/04/01 09:49:54;;;;;;;10.13;4.75;;;;;;;16.86;42.77;93813.91;5110582;28;20031;-81
2023/04/01 09:52:35;;;;;;;12.95;4.85;;;;;;;16.88;42.00;93813.56;5092203;28;20027;-80
2023/04/01 09:55:18;;;;;;;22.50;6.13;;;;;;;16.87;42.95;93803.97;5111243;28;20045;-80
2023/04/01 09:58:06;;;;;;;16.15;5.47;;;;;;;16.78;42.16;93776.63;5110719;28;20031;-81
2023/04/01 10:00:35;;;;;;;10.90;4.45;;;;;;;17.00;41.69;93800.09;5107643;28;20180;-80
2023/04/01 10:03:49;;;;;;;13.70;4.95;;;;;;;17.06;41.55;93792.59;5092914;28;20406;-80
2023/04/01 10:06:23;;;;;;;11.77;4.03;;;;;;;17.06;42.75;93797.94;5033236;28;20111;-80
2023/04/01 10:09:22;;;;;;;14.18;4.32;;;;;;;17.10;43.37;93788.06;5097249;28;20112;-81
2023/04/01 10:12:12;;;;;;;12.43;3.55;;;;;;;17.38;42.97;93796.78;5110336;28;20069;-80
2023/04/01 10:15:08;;;;;;;16.17;4.85;;;;;;;17.18;43.47;93782.53;5091720;28;20414;-80
2023/04/01 10:17:52;;;;;;;12.25;5.25;;;;;;;16.93;44.57;93781.97;5105768;28;20115;-80
2023/04/01 10:20:51;;;;;;;14.07;5.32;;;;;;;17.08;44.51;93771.59;5090858;28;20074;-80
2023/04/01 10:23:50;;;;;;;14.10;5.57;;;;;;;17.33;43.87;93781.72;5096012;28;20402;-80
2023/04/01 10:26:35;;;;;;;15.93;5.50;;;;;;;17.27;44.56;93780.44;5094916;28;20039;-80
2023/04/01 10:29:37;;;;;;;8.30;4.15;;;;;;;17.16;43.44;93760.69;5094653;28;20036;-80
2023/04/01 10:32:45;;;;;;;16.10;5.05;;;;;;;17.21;43.01;93747.03;5113121;28;20088;-80
2023/04/01 10:35:44;;;;;;;16.00;3.97;;;;;;;17.00;43.83;93767.97;5114165;28;20035;-80
2023/04/01 10:38:52;;;;;;;10.50;4.53;;;;;;;16.72;43.59;93768.06;5082541;28;20570;-80
2023/04/01 10:42:11;;;;;;;11.27;4.57;;;;;;;16.85;44.18;93769.53;5108140;28;20093;-80
2023/04/01 10:44:49;;;;;;;12.38;4.72;;;;;;;16.92;43.41;93756.31;5004420;28;20588;-80
2023/04/01 10:47:29;;;;;;;18.88;4.88;;;;;;;16.77;44.89;93742.94;5051025;28;20139;-80
2023/04/01 10:50:13;;;;;;;11.00;4.38;;;;;;;16.44;45.31;93722.63;5113499;28;20096;-80
2023/04/01 10:53:16;;;;;;;14.73;4.57;;;;;;;16.63;44.72;93731.91;5109059;28;20028;-80
2023/04/01 10:55:47;;;;;;;16.45;5.03;;;;;;;16.62;44.95;93738.38;5105802;28;20035;-80
2023/04/01 10:58:21;;;;;;;19.75;4.90;;;;;;;16.72;44.46;93732.47;5112198;28;20038;-80
2023/04/01 11:01:28;;;;;;;18.65;5.65;;;;;;;16.56;44.42;93716.38;5093282;28;20032;-80
2023/04/01 11:04:27;;;;;;;14.40;5.95;;;;;;;16.75;44.28;93718.41;5011305;28;20053;-80
2023/04/01 11:07:11;;;;;;;23.30;7.88;;;;;;;16.37;45.36;93713.63;4993839;28;20585;-80
2023/04/01 11:09:58;;;;;;;17.40;7.00;;;;;;;16.59;45.53;93718.38;5074683;28;20490;-80
2023/04/01 11:12:45;;;;;;;17.88;6.78;;;;;;;16.54;44.61;93703.38;5094954;28;20112;-81
2023/04/01 11:15:44;;;;;;;16.30;6.68;;;;;;;16.61;45.06;93707.38;5112224;28;20550;-80
2023/04/01 11:18:19;;;;;;;20.88;7.40;;;;;;;16.66;44.78;93712.44;5074326;28;20076;-80
2023/04/01 11:21:19;;;;;;;21.40;8.30;;;;;;;16.72;44.57;93713.72;5112505;28;20464;-80
2023/04/01 11:24:01;;;;;;;18.15;7.55;;;;;;;16.71;44.65;93712.19;5112930;28;20032;-80
2023/04/01 11:27:05;;;;;;;22.67;7.85;;;;;;;16.56;43.92;93724.41;5075959;28;20024;-80
2023/04/01 11:29:51;;;;;;;23.10;8.07;;;;;;;16.63;43.47;93737.25;5073841;28;20039;-81
2023/04/01 11:32:25;;;;;;;23.67;7.35;;;;;;;16.69;43.46;93762.63;5112391;28;20111;-80
2023/04/01 11:35:00;;;;;;;17.70;6.70;;;;;;;16.24;44.71;93763.00;5094791;28;20061;-80
2023/04/01 11:37:55;;;;;;;26.73;4.10;;;;;;;15.10;44.85;93734.94;5113158;28;20024;-80
2023/04/01 11:40:33;;;;;;;11.18;3.40;;;;;;;14.86;49.21;93715.16;5095090;28;20570;-80
2023/04/01 11:43:26;;;;;;;15.98;3.03;;;;;;;15.02;53.23;93817.50;5112787;28;20032;-80
2023/04/01 11:46:24;;;;;;;14.68;3.55;;;;;;;14.38;54.36;93835.13;5067494;28;20503;-80
2023/04/01 11:49:02;;;;;;;14.57;4.28;;;;;;;14.04;60.36;93945.53;5096086;28;20033;-80
2023/04/01 11:51:48;;;;;;;14.20;3.47;;;;;;;13.42;65.09;93948.88;5113554;28;20027;-79
2023/04/01 11:54:22;;;;;;;19.92;3.53;;;;;;;12.46;69.19;93971.47;5113737;28;20051;-79
2023/04/01 11:57:24;;;;;;;12.95;4.07;;;;;;;11.71;73.44;93985.09;5114670;28;20036;-79
2023/04/01 11:59:55;;;;;;;16.70;4.32;;;;;;;11.54;78.17;93999.91;5114497;28;20051;-79
2023/04/01 12:02:51;;;;;;;14.02;4.32;;;;;;;11.25;79.44;93993.53;5114295;28;20115;-77
2023/04/01 12:05:42;;;;;;;17.92;4.40;;;;;;;11.00;79.43;93979.84;5074666;28;20048;-79
2023/04/01 12:08:25;;;;;;;14.48;4.20;;;;;;;11.08;82.02;93999.53;5113513;28;20339;-77